createdAt,value
2023-02-22T00:02:45.170Z,47.35
2023-02-22T00:05:33.601Z,65.40
2023-02-22T00:08:26.038Z,63.43
2023-02-22T00:11:15.025Z,59.78
2023-02-22T00:14:03.647Z,68.57
2023-02-22T00:16:52.102Z,63.40
2023-02-22T00:19:40.538Z,55.13
2023-02-22T00:22:29.491Z,57.75
2023-02-22T00:25:20.953Z,54.92
2023-02-22T00:28:09.476Z,64.80
2023-02-22T00:30:57.921Z,58.63
2023-02-22T00:33:46.398Z,53.10
2023-02-22T00:36:34.839Z,53.17
2023-02-22T00:39:23.293Z,52.72
2023-02-22T00:42:13.086Z,74.70
2023-02-22T00:45:01.544Z,61.47
2023-02-22T00:47:50.694Z,61.05
2023-02-22T00:50:39.350Z,54.83
2023-02-22T00:53:28.191Z,53.83
2023-02-22T00:56:16.668Z,52.13
2023-02-22T00:59:06.504Z,54.17
2023-02-22T01:01:55.103Z,51.83
2023-02-22T01:04:43.642Z,50.22
2023-02-22T01:07:32.309Z,49.85
2023-02-22T01:10:23.220Z,52.33
2023-02-22T01:13:13.333Z,51.25
2023-02-22T01:16:03.260Z,53.80
2023-02-22T01:18:51.676Z,49.83
2023-02-22T01:21:41.465Z,53.25
2023-02-22T01:24:29.899Z,69.18
2023-02-22T01:27:18.918Z,71.47
2023-02-22T01:30:09.530Z,72.63
2023-02-22T01:32:59.487Z,71.10
2023-02-22T01:35:48.434Z,64.28
2023-02-22T01:38:36.902Z,62.40
2023-02-22T01:41:25.650Z,65.50
2023-02-22T01:44:23.038Z,62.97
2023-02-22T01:47:11.514Z,65.68
2023-02-22T01:50:01.389Z,61.63
2023-02-22T01:52:50.442Z,64.57
2023-02-22T01:55:40.497Z,65.22
2023-02-22T01:58:31.550Z,67.32
2023-02-22T02:01:23.079Z,63.10
2023-02-22T02:04:16.561Z,70.32
2023-02-22T02:07:08.933Z,68.63
2023-02-22T02:10:00.101Z,72.15
2023-02-22T02:12:51.168Z,70.00
2023-02-22T02:15:40.319Z,75.18
2023-02-22T02:18:29.801Z,76.70
2023-02-22T02:21:49.924Z,81.63
2023-02-22T02:25:23.528Z,92.88
2023-02-22T02:28:40.689Z,93.47
2023-02-22T02:32:06.369Z,88.50
2023-02-22T02:35:05.262Z,94.95
2023-02-22T02:37:58.817Z,92.75
2023-02-22T02:40:52.486Z,113.07
2023-02-22T02:43:47.203Z,109.88
2023-02-22T02:46:38.404Z,96.35
2023-02-22T02:49:31.919Z,105.97
2023-02-22T02:52:24.416Z,98.03
2023-02-22T02:55:13.481Z,101.32
2023-02-22T02:58:04.685Z,102.80
2023-02-22T03:00:55.570Z,117.95
2023-02-22T03:04:00.677Z,109.75
2023-02-22T03:07:09.473Z,97.95
2023-02-22T03:10:32.178Z,106.13
2023-02-22T03:13:27.323Z,122.60
2023-02-22T03:16:19.263Z,104.07
2023-02-22T03:19:13.120Z,101.65
2023-02-22T03:22:04.467Z,102.55
2023-02-22T03:24:56.514Z,105.55
2023-02-22T03:27:49.270Z,97.93
2023-02-22T03:30:39.710Z,112.60
2023-02-22T03:33:33.955Z,101.10
2023-02-22T03:36:25.017Z,106.85
2023-02-22T03:39:16.952Z,102.93
2023-02-22T03:42:07.570Z,116.95
2023-02-22T03:44:58.931Z,113.82
2023-02-22T03:47:50.477Z,101.53
2023-02-22T03:50:39.906Z,97.80
2023-02-22T03:53:30.562Z,95.60
2023-02-22T03:56:22.459Z,106.18
2023-02-22T03:59:11.841Z,113.80
2023-02-22T04:02:02.116Z,115.30
2023-02-22T04:04:51.386Z,102.18
2023-02-22T04:07:40.114Z,97.27
2023-02-22T04:10:28.847Z,100.78
2023-02-22T04:13:17.612Z,128.38
2023-02-22T04:16:06.475Z,111.65
2023-02-22T04:18:56.585Z,99.45
2023-02-22T04:21:45.334Z,135.00
2023-02-22T04:24:34.056Z,130.05
2023-02-22T04:27:22.761Z,125.55
2023-02-22T04:30:12.395Z,128.63
2023-02-22T04:33:01.309Z,107.90
2023-02-22T04:35:51.642Z,102.88
2023-02-22T04:38:40.398Z,96.22
2023-02-22T04:41:29.160Z,112.10
2023-02-22T04:44:17.847Z,134.68
2023-02-22T04:47:06.621Z,106.60
2023-02-22T04:49:55.927Z,97.93
2023-02-22T04:52:46.024Z,105.03
2023-02-22T04:55:35.201Z,136.90
2023-02-22T04:58:23.957Z,133.60
2023-02-22T05:01:12.776Z,107.88
2023-02-22T05:04:01.552Z,102.32
2023-02-22T05:06:50.266Z,99.78
2023-02-22T05:09:40.394Z,95.15
2023-02-22T05:12:29.141Z,94.65
2023-02-22T05:15:19.363Z,91.63
2023-02-22T05:18:08.066Z,89.05
2023-02-22T05:20:56.678Z,93.10
2023-02-22T05:23:45.195Z,93.43
2023-02-22T05:26:35.295Z,91.03
2023-02-22T05:29:23.843Z,96.13
2023-02-22T05:32:13.329Z,95.32
2023-02-22T05:35:01.787Z,99.75
2023-02-22T05:37:50.796Z,97.40
2023-02-22T05:40:39.247Z,94.72
2023-02-22T05:43:29.050Z,95.10
2023-02-22T05:46:17.490Z,91.80
2023-02-22T05:49:05.966Z,94.13
2023-02-22T05:51:55.862Z,87.70
2023-02-22T05:54:44.432Z,90.55
2023-02-22T05:57:33.056Z,94.38
2023-02-22T06:00:25.432Z,93.30
2023-02-22T06:03:14.132Z,91.25
2023-02-22T06:06:02.516Z,94.63
2023-02-22T06:08:51.155Z,112.28
2023-02-22T06:11:39.667Z,99.93
2023-02-22T06:14:28.201Z,92.85
2023-02-22T06:17:20.353Z,91.22
2023-02-22T06:20:10.588Z,89.23
2023-02-22T06:22:59.673Z,92.80
2023-02-22T06:25:48.168Z,92.60
2023-02-22T06:28:36.774Z,99.57
2023-02-22T06:31:25.201Z,93.40
2023-02-22T06:34:15.072Z,84.75
2023-02-22T06:37:03.480Z,95.93
2023-02-22T06:39:51.975Z,79.68
2023-02-22T06:42:40.991Z,86.90
2023-02-22T06:45:29.674Z,85.47
2023-02-22T06:48:18.456Z,83.60
2023-02-22T06:51:09.944Z,78.82
2023-02-22T06:53:58.480Z,79.70
2023-02-22T06:56:47.131Z,83.18
2023-02-22T06:59:35.543Z,78.07
2023-02-22T07:02:23.979Z,78.72
2023-02-22T07:05:13.492Z,78.43
2023-02-22T07:08:08.435Z,99.27
2023-02-22T07:10:57.164Z,97.20
2023-02-22T07:13:45.640Z,96.10
2023-02-22T07:16:34.644Z,89.05
2023-02-22T07:19:23.639Z,92.63
2023-02-22T07:22:12.131Z,93.15
2023-02-22T07:25:01.882Z,82.20
2023-02-22T07:27:52.411Z,79.18
2023-02-22T07:30:40.985Z,78.47
2023-02-22T07:33:29.680Z,71.40
2023-02-22T07:36:19.880Z,73.37
2023-02-22T07:39:08.803Z,75.53
2023-02-22T07:41:59.316Z,75.28
2023-02-22T07:44:47.831Z,83.15
2023-02-22T07:47:36.314Z,83.90
2023-02-22T07:50:26.249Z,87.33
2023-02-22T07:53:18.086Z,100.35
2023-02-22T07:56:08.802Z,87.50
2023-02-22T07:58:58.716Z,87.15
2023-02-22T08:01:49.997Z,90.63
2023-02-22T08:04:39.450Z,90.10
2023-02-22T08:07:27.907Z,80.38
2023-02-22T08:10:17.521Z,85.10
2023-02-22T08:13:07.014Z,75.95
2023-02-22T08:15:57.194Z,82.88
2023-02-22T08:18:45.634Z,73.43
2023-02-22T08:21:34.214Z,80.00
2023-02-22T08:24:22.681Z,77.07
2023-02-22T08:27:11.092Z,82.85
2023-02-22T08:29:59.534Z,88.13
2023-02-22T08:32:50.127Z,90.10
2023-02-22T08:35:40.910Z,84.82
2023-02-22T08:38:31.952Z,70.45
2023-02-22T08:41:20.390Z,69.35
2023-02-22T08:44:08.835Z,73.97
2023-02-22T08:46:58.503Z,81.65
2023-02-22T08:49:48.320Z,81.38
2023-02-22T08:52:36.918Z,81.72
2023-02-22T08:55:27.435Z,80.97
2023-02-22T08:58:15.884Z,86.35
2023-02-22T09:01:04.615Z,75.88
2023-02-22T09:03:53.208Z,78.18
2023-02-22T09:06:43.426Z,83.07
2023-02-22T09:09:31.959Z,92.47
2023-02-22T09:12:20.407Z,86.93
2023-02-22T09:15:09.751Z,89.65
2023-02-22T09:17:58.599Z,91.85
2023-02-22T09:20:47.066Z,88.28
2023-02-22T09:23:36.962Z,84.97
2023-02-22T09:26:25.455Z,90.18
2023-02-22T09:29:13.952Z,86.97
2023-02-22T09:32:03.975Z,83.50
2023-02-22T09:34:52.536Z,91.30
2023-02-22T09:37:44.567Z,100.43
2023-02-22T09:40:41.081Z,96.15
2023-02-22T09:43:40.581Z,94.53
2023-02-22T09:46:34.971Z,102.70
2023-02-22T09:49:26.376Z,97.80
2023-02-22T09:52:19.770Z,99.22
2023-02-22T09:55:17.290Z,105.50
2023-02-22T09:58:15.316Z,101.25
2023-02-22T10:01:19.815Z,98.50
2023-02-22T10:04:18.563Z,103.70
2023-02-22T10:07:18.293Z,112.35
2023-02-22T10:10:13.888Z,123.93
2023-02-22T10:13:14.105Z,106.23
2023-02-22T10:16:07.686Z,102.77
2023-02-22T10:19:16.140Z,98.90
2023-02-22T10:22:29.321Z,253.55
2023-02-22T10:25:22.184Z,148.50
2023-02-22T10:28:19.344Z,128.30
2023-02-22T10:31:10.508Z,181.43
2023-02-22T10:34:03.122Z,127.78
2023-02-22T10:36:56.677Z,117.60
2023-02-22T10:39:46.748Z,107.57
2023-02-22T10:42:35.454Z,126.05
2023-02-22T10:45:28.513Z,106.93
2023-02-22T10:48:21.149Z,112.13
2023-02-22T10:51:11.482Z,99.53
2023-02-22T10:54:08.936Z,97.43
2023-02-22T10:56:58.124Z,120.15
2023-02-22T10:59:46.874Z,124.03
2023-02-22T11:02:37.448Z,101.90
2023-02-22T11:05:36.748Z,118.88
2023-02-22T11:08:29.183Z,100.15
2023-02-22T11:11:25.346Z,111.88
2023-02-22T11:14:25.465Z,113.13
2023-02-22T11:17:23.443Z,107.00
2023-02-22T11:20:25.331Z,107.57
2023-02-22T11:23:14.563Z,102.70
2023-02-22T11:26:14.548Z,88.90
2023-02-22T11:29:12.264Z,98.18
2023-02-22T11:32:03.591Z,96.32
2023-02-22T11:35:03.569Z,89.30
2023-02-22T11:38:11.736Z,93.07
2023-02-22T11:41:14.511Z,104.47
2023-02-22T11:44:24.747Z,95.15
2023-02-22T11:47:13.877Z,94.68
2023-02-22T11:50:03.162Z,95.00
2023-02-22T11:53:10.267Z,87.38
2023-02-22T11:56:16.113Z,109.55
2023-02-22T11:59:15.922Z,86.43
2023-02-22T12:02:23.333Z,104.15
2023-02-22T12:05:25.300Z,90.28
2023-02-22T12:08:26.799Z,97.13
2023-02-22T12:11:20.613Z,84.30
2023-02-22T12:14:21.926Z,98.38
2023-02-22T12:17:35.027Z,81.60
2023-02-22T12:20:26.780Z,91.10
2023-02-22T12:23:22.635Z,95.55
2023-02-22T12:26:16.614Z,87.40
2023-02-22T12:29:13.064Z,98.75
2023-02-22T12:32:06.002Z,92.55
2023-02-22T12:34:59.636Z,84.80
2023-02-22T12:38:04.107Z,91.97
2023-02-22T12:41:01.538Z,104.33
2023-02-22T12:43:55.516Z,86.18
2023-02-22T12:46:47.711Z,90.70
2023-02-22T12:49:41.642Z,81.75
2023-02-22T12:52:41.236Z,86.05
2023-02-22T12:55:34.526Z,88.43
2023-02-22T12:58:30.411Z,84.30
2023-02-22T13:01:22.109Z,83.68
2023-02-22T13:04:20.415Z,82.57
2023-02-22T13:07:22.039Z,84.45
2023-02-22T13:10:33.079Z,80.00
2023-02-22T13:13:31.514Z,82.55
2023-02-22T13:16:29.888Z,85.03
2023-02-22T13:19:34.189Z,112.47
2023-02-22T13:22:26.649Z,91.25
2023-02-22T13:25:21.704Z,95.05
2023-02-22T13:28:22.058Z,88.07
2023-02-22T13:31:39.876Z,75.60
2023-02-22T13:34:50.446Z,87.35
2023-02-22T13:38:07.378Z,110.00
2023-02-22T13:41:12.871Z,85.70
2023-02-22T13:44:28.713Z,91.30
2023-02-22T13:47:39.403Z,101.07
2023-02-22T13:51:02.629Z,100.40
2023-02-22T13:53:56.089Z,77.00
2023-02-22T13:56:45.349Z,76.72
2023-02-22T13:59:36.373Z,87.03
2023-02-22T14:03:02.074Z,106.97
2023-02-22T14:05:52.700Z,96.43
2023-02-22T14:08:42.654Z,115.15
2023-02-22T14:11:57.968Z,110.72
2023-02-22T14:15:28.661Z,126.65
2023-02-22T14:18:19.536Z,96.80
2023-02-22T14:21:09.880Z,93.40
2023-02-22T14:24:08.759Z,90.35
2023-02-22T14:27:01.525Z,88.75
2023-02-22T14:29:55.407Z,94.03
2023-02-22T14:32:44.128Z,87.53
2023-02-22T14:35:49.484Z,96.10
2023-02-22T14:38:38.928Z,99.73
2023-02-22T14:41:31.086Z,98.60
2023-02-22T14:44:25.480Z,94.38
2023-02-22T14:47:21.017Z,98.33
2023-02-22T14:50:15.920Z,93.35
2023-02-22T14:53:13.309Z,91.13
2023-02-22T14:56:06.917Z,94.90
2023-02-22T14:59:00.874Z,94.43
2023-02-22T15:02:05.817Z,95.13
2023-02-22T15:04:58.202Z,95.00
2023-02-22T15:07:55.306Z,102.05
2023-02-22T15:10:46.710Z,93.40
2023-02-22T15:13:35.176Z,118.20
2023-02-22T15:16:24.493Z,110.95
2023-02-22T15:19:13.728Z,115.40
2023-02-22T15:22:03.942Z,112.45
2023-02-22T15:24:59.894Z,96.40
2023-02-22T15:27:49.830Z,117.33
2023-02-22T15:30:38.364Z,107.68
2023-02-22T15:33:37.950Z,99.88
2023-02-22T15:36:31.047Z,90.80
2023-02-22T15:39:20.851Z,98.10
2023-02-22T15:42:19.201Z,114.28
2023-02-22T15:45:14.122Z,96.88
2023-02-22T15:48:03.357Z,97.63
2023-02-22T15:51:06.836Z,108.57
2023-02-22T15:53:55.286Z,106.45
2023-02-22T15:56:49.853Z,87.53
2023-02-22T15:59:45.520Z,86.43
2023-02-22T16:02:39.242Z,94.35
2023-02-22T16:05:38.095Z,93.13
2023-02-22T16:08:31.270Z,90.30
2023-02-22T16:11:29.947Z,94.30
2023-02-22T16:14:27.508Z,92.78
2023-02-22T16:17:32.483Z,100.37
2023-02-22T16:20:38.712Z,94.93
2023-02-22T16:23:28.952Z,95.00
2023-02-22T16:26:28.084Z,85.83
2023-02-22T16:29:27.448Z,85.25
2023-02-22T16:32:16.097Z,91.13
2023-02-22T16:35:04.714Z,90.30
2023-02-22T16:37:59.138Z,88.13
2023-02-22T16:40:50.577Z,122.05
2023-02-22T16:43:39.154Z,111.22
2023-02-22T16:46:27.695Z,93.15
2023-02-22T16:49:16.403Z,96.40
2023-02-22T16:52:08.445Z,87.50
2023-02-22T16:54:58.278Z,87.43
2023-02-22T16:57:47.539Z,86.28
2023-02-22T17:00:36.059Z,95.25
2023-02-22T17:03:25.526Z,95.15
2023-02-22T17:06:14.006Z,91.97
2023-02-22T17:09:02.416Z,119.00
2023-02-22T17:11:54.015Z,109.97
2023-02-22T17:14:46.938Z,103.35
2023-02-22T17:17:35.376Z,96.93
2023-02-22T17:20:30.081Z,88.55
2023-02-22T17:23:19.893Z,91.70
2023-02-22T17:26:08.400Z,88.88
2023-02-22T17:28:58.310Z,89.82
2023-02-22T17:31:48.812Z,93.97
2023-02-22T17:34:37.548Z,90.75
2023-02-22T17:37:25.992Z,92.60
2023-02-22T17:40:15.695Z,92.30
2023-02-22T17:43:04.808Z,96.95
2023-02-22T17:45:54.865Z,90.47
2023-02-22T17:48:43.501Z,97.38
2023-02-22T17:51:31.941Z,104.47
2023-02-22T17:54:20.623Z,104.28
2023-02-22T17:57:09.091Z,97.75
2023-02-22T17:59:58.039Z,94.07
2023-02-22T18:02:48.077Z,98.82
2023-02-22T18:05:41.308Z,101.07
2023-02-22T18:08:32.044Z,108.72
2023-02-22T18:11:25.003Z,94.13
2023-02-22T18:14:13.406Z,101.88
2023-02-22T18:17:02.143Z,98.63
2023-02-22T18:19:52.000Z,96.43
2023-02-22T18:22:42.719Z,99.18
2023-02-22T18:25:32.833Z,96.88
2023-02-22T18:28:22.679Z,117.00
2023-02-22T18:31:15.121Z,99.90
2023-02-22T18:34:03.763Z,101.25
2023-02-22T18:36:53.788Z,89.13
2023-02-22T18:39:43.174Z,103.85
2023-02-22T18:42:31.615Z,99.03
2023-02-22T18:45:21.144Z,99.07
2023-02-22T18:48:09.566Z,95.05
2023-02-22T18:51:01.326Z,104.22
2023-02-22T18:53:54.947Z,100.70
2023-02-22T18:56:43.420Z,98.55
2023-02-22T18:59:31.886Z,95.63
2023-02-22T19:02:21.287Z,97.82
2023-02-22T19:05:10.014Z,99.97
2023-02-22T19:07:58.455Z,106.77
2023-02-22T19:10:49.557Z,128.07
2023-02-22T19:13:38.898Z,111.65
2023-02-22T19:16:28.868Z,118.45
2023-02-22T19:19:20.803Z,124.88
2023-02-22T19:22:09.281Z,125.18
2023-02-22T19:24:57.971Z,114.32
2023-02-22T19:27:47.737Z,112.55
2023-02-22T19:30:36.155Z,123.03
2023-02-22T19:33:26.101Z,106.25
2023-02-22T19:36:16.679Z,99.15
2023-02-22T19:39:05.582Z,110.82
2023-02-22T19:41:53.990Z,114.13
2023-02-22T19:44:43.896Z,119.23
2023-02-22T19:47:33.085Z,125.15
2023-02-22T19:50:22.447Z,115.60
2023-02-22T19:53:14.019Z,128.65
2023-02-22T19:56:06.730Z,125.05
2023-02-22T19:58:57.213Z,125.15
2023-02-22T20:01:47.063Z,111.70
2023-02-22T20:04:37.404Z,108.35
2023-02-22T20:07:25.931Z,127.35
2023-02-22T20:10:15.175Z,120.85
2023-02-22T20:13:03.868Z,103.68
2023-02-22T20:15:53.452Z,133.60
2023-02-22T20:18:43.835Z,120.10
2023-02-22T20:21:33.216Z,132.93
2023-02-22T20:24:21.944Z,132.10
2023-02-22T20:27:10.708Z,106.35
2023-02-22T20:29:59.494Z,99.35
2023-02-22T20:32:48.376Z,104.78
2023-02-22T20:35:38.611Z,100.33
2023-02-22T20:38:27.340Z,102.20
2023-02-22T20:41:17.165Z,128.25
2023-02-22T20:44:06.987Z,108.68
2023-02-22T20:46:55.827Z,103.15
2023-02-22T20:49:44.640Z,120.13
2023-02-22T20:52:34.756Z,103.20
2023-02-22T20:55:23.388Z,98.57
2023-02-22T20:58:12.150Z,106.65
2023-02-22T21:01:04.991Z,102.45
2023-02-22T21:03:53.824Z,101.00
2023-02-22T21:06:43.036Z,98.45
2023-02-22T21:09:33.911Z,101.05
2023-02-22T21:12:22.589Z,107.07
2023-02-22T21:15:11.999Z,112.00
2023-02-22T21:18:00.751Z,132.40
2023-02-22T21:20:49.863Z,120.95
2023-02-22T21:23:38.868Z,115.97
2023-02-22T21:26:29.804Z,99.00
2023-02-22T21:29:18.528Z,101.43
2023-02-22T21:32:08.667Z,99.43
2023-02-22T21:34:57.577Z,117.82
2023-02-22T21:37:46.295Z,119.18
2023-02-22T21:40:35.882Z,114.50
2023-02-22T21:43:27.375Z,113.90
2023-02-22T21:46:16.148Z,103.60
2023-02-22T21:49:05.811Z,130.85
2023-02-22T21:51:54.520Z,134.27
2023-02-22T21:54:43.419Z,108.85
2023-02-22T21:57:32.162Z,104.35
2023-02-22T22:00:29.194Z,106.83
2023-02-22T22:03:21.458Z,103.40
2023-02-22T22:06:13.847Z,100.07
2023-02-22T22:09:04.776Z,102.30
2023-02-22T22:11:54.454Z,97.70
2023-02-22T22:14:43.247Z,132.68
2023-02-22T22:17:33.936Z,125.10
2023-02-22T22:20:23.721Z,121.47
2023-02-22T22:23:12.602Z,113.22
2023-02-22T22:26:03.181Z,98.23
2023-02-22T22:28:52.898Z,102.32
2023-02-22T22:31:41.720Z,102.73
2023-02-22T22:34:34.345Z,101.47
2023-02-22T22:37:23.118Z,105.45
2023-02-22T22:40:15.560Z,99.57
2023-02-22T22:43:06.110Z,101.97
2023-02-22T22:45:54.900Z,106.13
2023-02-22T22:48:44.620Z,105.37
2023-02-22T22:51:34.747Z,106.00
2023-02-22T22:54:23.926Z,103.80
2023-02-22T22:57:12.880Z,103.63
2023-02-22T23:00:21.689Z,103.75
2023-02-22T23:03:11.915Z,103.45
2023-02-22T23:06:03.775Z,97.97
2023-02-22T23:08:59.979Z,122.40
2023-02-22T23:11:50.890Z,110.85
2023-02-22T23:14:44.077Z,101.32
2023-02-22T23:17:41.221Z,104.40
2023-02-22T23:20:29.992Z,99.82
2023-02-22T23:23:18.706Z,102.07
2023-02-22T23:26:17.935Z,109.00
2023-02-22T23:29:08.742Z,98.57
2023-02-22T23:31:58.753Z,106.45
2023-02-22T23:34:49.618Z,112.25
2023-02-22T23:37:39.878Z,102.47
2023-02-22T23:40:29.174Z,101.87
2023-02-22T23:43:21.868Z,104.78
2023-02-22T23:46:11.771Z,101.63
2023-02-22T23:49:02.699Z,103.55
2023-02-22T23:51:52.587Z,107.97
2023-02-22T23:54:44.117Z,104.35
2023-02-22T23:57:32.986Z,110.60
